Terminal Aerodrome Forecast
Issued by NWS Jackson, MS

Current Version | Previous Version | Text Only | Print | Product List | Glossary On
Versions: 1 2 3 4 5 6 7 8 9 10 11 12 13 14 15
000
FTUS44 KJAN 271700
TAFGWO
TAF
KGWO 271731Z 2718/2818 36011KT P6SM BKN030
     FM272100 01007KT P6SM SCT035
     FM280000 00000KT P6SM SKC
     FM281300 19008KT P6SM SKC=

USA.gov is the U.S. government's official web portal to all federal, state and local government web resources and services.